Terminal Aerodrome Forecast
Issued by NWS Buffalo, NY

Home | Current Version | Previous Version | Text Only | Print | Product List | Glossary On
Versions: 1 2 3 4 5 6 7 8 9 10 11 12 13 14 15 16 17 18 19 20 21 22 23 24
000
FTUS41 KBUF 232328
TAFART
TAF
KART 232328Z 2400/2424 21005KT P6SM BKN150
     FM240300 16006KT P6SM BKN100
     FM241000 17009KT P6SM OVC070
     FM241300 17011KT 4SM -FZRAPL OVC045 WS020/22035KT
     FM241500 18014KT 6SM -RA OVC025 WS020/24045KT
     FM242000 21011KT 6SM -RA OVC015=

USA.gov is the U.S. government's official web portal to all federal, state and local government web resources and services.